createdAt,value
2024-02-13T00:00:34.109Z,16.93
2024-02-13T00:03:01.791Z,16.92
2024-02-13T00:05:29.556Z,16.91
2024-02-13T00:07:57.114Z,16.91
2024-02-13T00:10:25.840Z,16.90
2024-02-13T00:12:53.336Z,16.91
2024-02-13T00:15:22.324Z,16.90
2024-02-13T00:17:49.976Z,16.89
2024-02-13T00:20:18.840Z,16.89
2024-02-13T00:22:49.287Z,16.88
2024-02-13T00:25:18.753Z,16.87
2024-02-13T00:27:48.205Z,16.87
2024-02-13T00:30:15.864Z,16.88
2024-02-13T00:33:06.712Z,16.86
2024-02-13T00:35:55.299Z,16.84
2024-02-13T00:38:22.776Z,16.85
2024-02-13T00:40:50.280Z,16.83
2024-02-13T00:43:21.415Z,16.84
2024-02-13T00:45:48.913Z,16.84
2024-02-13T00:48:19.300Z,16.83
2024-02-13T00:50:48.463Z,16.85
2024-02-13T00:53:18.862Z,16.85
2024-02-13T00:55:47.081Z,16.87
2024-02-13T00:58:14.757Z,16.90
2024-02-13T01:00:42.186Z,16.92
2024-02-13T01:03:12.391Z,16.94
2024-02-13T01:05:42.726Z,16.95
2024-02-13T01:08:12.031Z,16.97
2024-02-13T01:10:40.269Z,16.98
2024-02-13T01:13:08.831Z,16.98
2024-02-13T01:15:37.797Z,16.99
2024-02-13T01:18:06.328Z,16.98
2024-02-13T01:20:34.769Z,16.99
2024-02-13T01:23:02.305Z,16.99
2024-02-13T01:25:32.042Z,17.00
2024-02-13T01:28:00.256Z,17.00
2024-02-13T01:30:27.640Z,17.00
2024-02-13T01:32:55.180Z,17.00
2024-02-13T01:35:22.707Z,17.00
2024-02-13T01:37:51.030Z,16.99
2024-02-13T01:40:18.786Z,17.00
2024-02-13T01:42:49.873Z,16.99
2024-02-13T01:45:18.276Z,16.99
2024-02-13T01:47:56.648Z,16.99
2024-02-13T01:50:24.261Z,16.99
2024-02-13T01:52:52.552Z,16.98
2024-02-13T01:55:25.139Z,16.98
2024-02-13T01:57:55.468Z,16.98
2024-02-13T02:00:23.507Z,16.97
2024-02-13T02:02:51.297Z,16.97
2024-02-13T02:05:19.291Z,16.96
2024-02-13T02:07:57.534Z,16.96
2024-02-13T02:10:25.161Z,16.95
2024-02-13T02:12:52.891Z,16.95
2024-02-13T02:15:20.577Z,16.94
2024-02-13T02:17:52.913Z,16.94
2024-02-13T02:20:21.300Z,16.93
2024-02-13T02:22:48.869Z,16.93
2024-02-13T02:25:19.947Z,16.91
2024-02-13T02:28:05.694Z,16.91
2024-02-13T02:30:36.375Z,16.90
2024-02-13T02:33:05.173Z,16.89
2024-02-13T02:35:32.968Z,16.89
2024-02-13T02:38:00.451Z,16.89
2024-02-13T02:40:29.259Z,16.90
2024-02-13T02:42:56.875Z,16.91
2024-02-13T02:45:25.038Z,16.90
2024-02-13T02:47:53.090Z,16.91
2024-02-13T02:50:21.102Z,16.92
2024-02-13T02:52:48.568Z,16.92
2024-02-13T02:55:16.850Z,16.95
2024-02-13T02:57:44.658Z,16.97
2024-02-13T03:00:14.016Z,16.99
2024-02-13T03:02:54.053Z,17.01
2024-02-13T03:05:22.246Z,17.03
2024-02-13T03:07:49.659Z,17.03
2024-02-13T03:10:17.134Z,17.04
2024-02-13T03:12:45.392Z,17.05
2024-02-13T03:15:13.869Z,17.04
2024-02-13T03:17:41.442Z,17.04
2024-02-13T03:20:12.655Z,17.05
2024-02-13T03:22:53.769Z,17.04
2024-02-13T03:25:21.192Z,17.05
2024-02-13T03:27:55.853Z,17.05
2024-02-13T03:30:23.508Z,17.04
2024-02-13T03:32:51.380Z,17.04
2024-02-13T03:35:19.226Z,17.04
2024-02-13T03:37:46.599Z,17.05
2024-02-13T03:40:17.364Z,17.04
2024-02-13T03:42:45.934Z,17.02
2024-02-13T03:45:13.615Z,17.03
2024-02-13T03:47:53.095Z,17.02
2024-02-13T03:50:20.646Z,17.02
2024-02-13T03:52:48.182Z,17.02
2024-02-13T03:55:15.769Z,17.02
2024-02-13T03:57:43.399Z,17.01
2024-02-13T04:00:12.841Z,17.00
2024-02-13T04:02:43.200Z,16.98
2024-02-13T04:05:11.396Z,16.99
2024-02-13T04:07:39.145Z,16.98
2024-02-13T04:10:06.963Z,16.98
2024-02-13T04:12:46.342Z,16.98
2024-02-13T04:15:14.756Z,16.96
2024-02-13T04:17:52.240Z,16.96
2024-02-13T04:20:19.869Z,16.96
2024-02-13T04:22:47.283Z,16.96
2024-02-13T04:25:14.801Z,16.95
2024-02-13T04:27:44.454Z,16.95
2024-02-13T04:30:12.663Z,16.94
2024-02-13T04:32:41.059Z,16.94
2024-02-13T04:35:10.151Z,16.92
2024-02-13T04:37:38.174Z,16.93
2024-02-13T04:40:07.349Z,16.94
2024-02-13T04:42:37.933Z,16.94
2024-02-13T04:45:05.641Z,16.95
2024-02-13T04:47:36.094Z,16.95
2024-02-13T04:50:04.486Z,16.97
2024-02-13T04:52:32.523Z,16.99
2024-02-13T04:54:59.926Z,17.02
2024-02-13T04:57:28.458Z,17.04
2024-02-13T04:59:58.577Z,17.04
2024-02-13T05:02:26.360Z,17.07
2024-02-13T05:05:12.708Z,17.06
2024-02-13T05:07:42.747Z,17.06
2024-02-13T05:10:10.897Z,17.06
2024-02-13T05:12:58.455Z,17.05
2024-02-13T05:15:26.604Z,17.07
2024-02-13T05:17:54.107Z,17.07
2024-02-13T05:20:21.697Z,17.08
2024-02-13T05:22:49.268Z,17.07
2024-02-13T05:25:16.998Z,17.06
2024-02-13T05:27:45.987Z,17.07
2024-02-13T05:30:13.532Z,17.05
2024-02-13T05:32:41.076Z,17.06
2024-02-13T05:35:09.404Z,17.06
2024-02-13T05:37:38.865Z,17.05
2024-02-13T05:40:07.730Z,17.05
2024-02-13T05:42:35.951Z,17.05
2024-02-13T05:45:03.629Z,17.04
2024-02-13T05:47:36.938Z,17.04
2024-02-13T05:50:09.032Z,17.04
2024-02-13T05:52:37.146Z,17.01
2024-02-13T05:55:05.318Z,17.01
2024-02-13T05:57:33.234Z,17.00
2024-02-13T06:00:00.866Z,16.97
2024-02-13T06:02:28.758Z,16.98
2024-02-13T06:04:56.249Z,16.99
2024-02-13T06:07:23.617Z,16.98
2024-02-13T06:09:51.160Z,16.98
2024-02-13T06:12:19.011Z,16.96
2024-02-13T06:14:48.664Z,16.97
2024-02-13T06:17:16.383Z,16.95
2024-02-13T06:19:44.086Z,16.95
2024-02-13T06:22:11.612Z,16.95
2024-02-13T06:24:39.828Z,16.95
2024-02-13T06:27:08.456Z,16.93
2024-02-13T06:29:36.201Z,16.94
2024-02-13T06:32:03.739Z,16.94
2024-02-13T06:34:31.174Z,16.94
2024-02-13T06:36:58.770Z,16.94
2024-02-13T06:39:26.922Z,16.96
2024-02-13T06:41:54.590Z,16.98
2024-02-13T06:44:23.739Z,17.00
2024-02-13T06:46:51.466Z,17.03
2024-02-13T06:49:19.184Z,17.05
2024-02-13T06:51:46.638Z,17.05
2024-02-13T06:54:13.977Z,17.07
2024-02-13T06:56:45.425Z,17.08
2024-02-13T06:59:13.166Z,17.07
2024-02-13T07:01:40.702Z,17.07
2024-02-13T07:04:08.225Z,17.08
2024-02-13T07:06:43.999Z,17.07
2024-02-13T07:09:24.554Z,17.08
2024-02-13T07:11:53.028Z,17.08
2024-02-13T07:14:24.564Z,17.07
2024-02-13T07:16:53.163Z,17.07
2024-02-13T07:19:20.624Z,17.07
2024-02-13T07:21:48.035Z,17.06
2024-02-13T07:24:16.148Z,17.07
2024-02-13T07:26:43.890Z,17.06
2024-02-13T07:29:12.405Z,17.06
2024-02-13T07:31:40.387Z,17.06
2024-02-13T07:34:08.066Z,17.04
2024-02-13T07:36:35.627Z,17.06
2024-02-13T07:39:03.901Z,17.04
2024-02-13T07:41:31.232Z,17.04
2024-02-13T07:43:58.705Z,17.04
2024-02-13T07:46:26.593Z,17.02
2024-02-13T07:48:54.564Z,17.01
2024-02-13T07:51:22.449Z,17.00
2024-02-13T07:53:49.956Z,17.01
2024-02-13T07:56:19.946Z,17.00
2024-02-13T07:58:47.774Z,16.99
2024-02-13T08:01:21.465Z,16.98
2024-02-13T08:03:48.918Z,16.98
2024-02-13T08:06:16.512Z,16.98
2024-02-13T08:08:44.263Z,16.98
2024-02-13T08:11:11.874Z,16.97
2024-02-13T08:13:39.374Z,16.96
2024-02-13T08:16:08.272Z,16.97
2024-02-13T08:18:36.206Z,16.96
2024-02-13T08:21:03.750Z,16.95
2024-02-13T08:23:31.668Z,16.94
2024-02-13T08:25:59.124Z,16.95
2024-02-13T08:28:27.601Z,16.95
2024-02-13T08:30:55.047Z,16.96
2024-02-13T08:33:23.907Z,16.97
2024-02-13T08:35:54.779Z,17.00
2024-02-13T08:38:22.641Z,17.02
2024-02-13T08:40:50.284Z,17.05
2024-02-13T08:43:18.087Z,17.07
2024-02-13T08:45:45.474Z,17.08
2024-02-13T08:48:14.525Z,17.08
2024-02-13T08:50:42.481Z,17.09
2024-02-13T08:53:11.050Z,17.09
2024-02-13T08:55:38.568Z,17.10
2024-02-13T08:58:06.441Z,17.09
2024-02-13T09:00:33.923Z,17.09
2024-02-13T09:03:12.657Z,17.09
2024-02-13T09:05:40.613Z,17.08
2024-02-13T09:08:08.228Z,17.08
2024-02-13T09:10:35.638Z,17.10
2024-02-13T09:13:03.227Z,17.08
2024-02-13T09:15:32.003Z,17.09
2024-02-13T09:17:59.661Z,17.08
2024-02-13T09:20:27.803Z,17.08
2024-02-13T09:22:56.863Z,17.08
2024-02-13T09:25:24.450Z,17.08
2024-02-13T09:27:54.108Z,17.07
2024-02-13T09:30:24.104Z,17.08
2024-02-13T09:32:51.715Z,17.07
2024-02-13T09:35:19.432Z,17.06
2024-02-13T09:37:51.390Z,17.07
2024-02-13T09:40:19.685Z,17.06
2024-02-13T09:42:47.592Z,17.05
2024-02-13T09:45:15.215Z,17.03
2024-02-13T09:47:43.583Z,17.04
2024-02-13T09:50:13.903Z,17.02
2024-02-13T09:52:56.059Z,17.02
2024-02-13T09:55:23.651Z,17.01
2024-02-13T09:57:51.501Z,17.01
2024-02-13T10:00:19.806Z,17.01
2024-02-13T10:02:52.132Z,17.01
2024-02-13T10:05:22.694Z,16.99
2024-02-13T10:07:50.923Z,17.01
2024-02-13T10:10:18.537Z,16.99
2024-02-13T10:12:56.381Z,16.99
2024-02-13T10:15:24.221Z,16.99
2024-02-13T10:17:52.938Z,16.99
2024-02-13T10:20:20.756Z,16.99
2024-02-13T10:22:48.974Z,17.01
2024-02-13T10:25:25.051Z,17.01
2024-02-13T10:27:55.782Z,17.03
2024-02-13T10:30:24.399Z,17.05
2024-02-13T10:32:52.141Z,17.07
2024-02-13T10:35:23.908Z,17.09
2024-02-13T10:37:51.849Z,17.11
2024-02-13T10:40:20.048Z,17.12
2024-02-13T10:42:47.816Z,17.12
2024-02-13T10:45:15.671Z,17.13
2024-02-13T10:47:53.038Z,17.11
2024-02-13T10:50:21.542Z,17.13
2024-02-13T10:52:59.557Z,17.13
2024-02-13T10:55:27.841Z,17.12
2024-02-13T10:57:57.776Z,17.13
2024-02-13T11:00:27.744Z,17.13
2024-02-13T11:02:57.100Z,17.13
2024-02-13T11:05:29.568Z,17.12
2024-02-13T11:07:57.463Z,17.12
2024-02-13T11:10:36.382Z,17.12
2024-02-13T11:13:06.364Z,17.13
2024-02-13T11:15:38.986Z,17.13
2024-02-13T11:18:14.893Z,17.12
2024-02-13T11:20:50.061Z,17.11
2024-02-13T11:23:35.191Z,17.10
2024-02-13T11:26:03.035Z,17.10
2024-02-13T11:28:39.986Z,17.11
2024-02-13T11:31:16.062Z,17.10
2024-02-13T11:34:03.017Z,17.08
2024-02-13T11:36:37.135Z,17.09
2024-02-13T11:39:08.562Z,17.08
2024-02-13T11:41:36.680Z,17.07
2024-02-13T11:44:11.103Z,17.07
2024-02-13T11:46:39.211Z,17.07
2024-02-13T11:49:11.534Z,17.06
2024-02-13T11:51:43.094Z,17.07
2024-02-13T11:54:10.821Z,17.06
2024-02-13T11:56:38.953Z,17.05
2024-02-13T11:59:07.326Z,17.04
2024-02-13T12:01:38.991Z,17.04
2024-02-13T12:04:17.711Z,17.04
2024-02-13T12:06:46.068Z,17.04
2024-02-13T12:09:16.561Z,17.02
2024-02-13T12:11:44.856Z,17.03
2024-02-13T12:14:14.666Z,17.04
2024-02-13T12:16:43.953Z,17.05
2024-02-13T12:19:11.986Z,17.05
2024-02-13T12:21:39.628Z,17.07
2024-02-13T12:24:09.960Z,17.10
2024-02-13T12:26:38.534Z,17.12
2024-02-13T12:29:16.740Z,17.14
2024-02-13T12:31:47.308Z,17.14
2024-02-13T12:34:15.426Z,17.16
2024-02-13T12:36:43.356Z,17.16
2024-02-13T12:39:21.980Z,17.18
2024-02-13T12:41:53.559Z,17.18
2024-02-13T12:44:22.544Z,17.18
2024-02-13T12:46:52.764Z,17.17
2024-02-13T12:49:24.336Z,17.17
2024-02-13T12:51:52.510Z,17.18
2024-02-13T12:54:23.311Z,17.18
2024-02-13T12:56:54.234Z,17.17
2024-02-13T12:59:23.319Z,17.18
2024-02-13T13:01:50.907Z,17.17
2024-02-13T13:04:18.715Z,17.17
2024-02-13T13:06:46.496Z,17.18
2024-02-13T13:09:23.683Z,17.18
2024-02-13T13:11:56.301Z,17.16
2024-02-13T13:14:25.130Z,17.18
2024-02-13T13:16:53.598Z,17.16
2024-02-13T13:19:24.590Z,17.15
2024-02-13T13:21:54.507Z,17.16
2024-02-13T13:24:24.022Z,17.15
2024-02-13T13:26:52.042Z,17.14
2024-02-13T13:29:21.231Z,17.14
2024-02-13T13:31:50.654Z,17.13
2024-02-13T13:34:22.039Z,17.13
2024-02-13T13:36:51.171Z,17.12
2024-02-13T13:39:18.793Z,17.12
2024-02-13T13:41:46.559Z,17.11
2024-02-13T13:44:16.855Z,17.11
2024-02-13T13:46:47.094Z,17.10
2024-02-13T13:49:19.403Z,17.09
2024-02-13T13:51:48.364Z,17.09
2024-02-13T13:54:16.725Z,17.09
2024-02-13T13:56:44.362Z,17.09
2024-02-13T13:59:12.091Z,17.09
2024-02-13T14:01:40.060Z,17.09
2024-02-13T14:04:12.721Z,17.10
2024-02-13T14:06:41.379Z,17.09
2024-02-13T14:09:10.029Z,17.09
2024-02-13T14:11:38.581Z,17.10
2024-02-13T14:14:06.685Z,17.10
2024-02-13T14:16:34.355Z,17.14
2024-02-13T14:19:02.884Z,17.16
2024-02-13T14:21:30.453Z,17.17
2024-02-13T14:23:59.529Z,17.19
2024-02-13T14:26:28.031Z,17.21
2024-02-13T14:28:55.598Z,17.22
2024-02-13T14:31:23.033Z,17.23
2024-02-13T14:33:51.172Z,17.23
2024-02-13T14:36:20.452Z,17.23
2024-02-13T14:38:47.868Z,17.23
2024-02-13T14:41:16.937Z,17.23
2024-02-13T14:43:44.424Z,17.24
2024-02-13T14:46:12.175Z,17.23
2024-02-13T14:48:39.885Z,17.23
2024-02-13T14:51:07.626Z,17.23
2024-02-13T14:53:35.603Z,17.22
2024-02-13T14:56:03.043Z,17.25
2024-02-13T14:58:38.954Z,17.24
2024-02-13T15:01:10.894Z,17.22
2024-02-13T15:03:39.917Z,17.23
2024-02-13T15:06:07.924Z,17.23
2024-02-13T15:08:36.134Z,17.22
2024-02-13T15:11:06.085Z,17.22
2024-02-13T15:13:36.824Z,17.21
2024-02-13T15:16:06.901Z,17.21
2024-02-13T15:18:44.695Z,17.20
2024-02-13T15:21:13.226Z,17.20
2024-02-13T15:23:41.782Z,17.19
2024-02-13T15:26:09.783Z,17.20
2024-02-13T15:28:37.800Z,17.18
2024-02-13T15:31:05.757Z,17.17
2024-02-13T15:33:41.774Z,17.18
2024-02-13T15:36:32.557Z,17.17
2024-02-13T15:39:19.115Z,17.16
2024-02-13T15:42:05.532Z,17.18
2024-02-13T15:44:51.814Z,17.16
2024-02-13T15:47:19.416Z,17.15
2024-02-13T15:49:51.161Z,17.16
2024-02-13T15:52:19.414Z,17.15
2024-02-13T15:54:49.119Z,17.15
2024-02-13T15:57:17.193Z,17.14
2024-02-13T15:59:45.327Z,17.14
2024-02-13T16:02:16.222Z,17.14
2024-02-13T16:04:44.356Z,17.14
2024-02-13T16:07:12.143Z,17.15
2024-02-13T16:09:39.995Z,17.17
2024-02-13T16:12:07.598Z,17.20
2024-02-13T16:14:35.120Z,17.20
2024-02-13T16:17:03.798Z,17.22
2024-02-13T16:19:31.982Z,17.26
2024-02-13T16:21:59.549Z,17.26
2024-02-13T16:24:26.980Z,17.27
2024-02-13T16:26:54.788Z,17.27
2024-02-13T16:29:24.914Z,17.27
2024-02-13T16:31:54.767Z,17.28
2024-02-13T16:34:22.870Z,17.27
2024-02-13T16:36:50.497Z,17.28
2024-02-13T16:39:19.262Z,17.28
2024-02-13T16:41:47.345Z,17.28
2024-02-13T16:44:19.348Z,17.29
2024-02-13T16:46:49.649Z,17.28
2024-02-13T16:49:17.624Z,17.28
2024-02-13T16:51:45.327Z,17.27
2024-02-13T16:54:12.935Z,17.28
2024-02-13T16:56:40.673Z,17.29
2024-02-13T16:59:08.605Z,17.27
2024-02-13T17:01:37.813Z,17.27
2024-02-13T17:04:10.032Z,17.27
2024-02-13T17:06:37.949Z,17.27
2024-02-13T17:09:06.599Z,17.25
2024-02-13T17:11:34.935Z,17.24
2024-02-13T17:14:02.386Z,17.25
2024-02-13T17:16:30.519Z,17.23
2024-02-13T17:18:58.640Z,17.23
2024-02-13T17:21:26.776Z,17.23
2024-02-13T17:23:54.348Z,17.23
2024-02-13T17:26:24.302Z,17.23
2024-02-13T17:28:51.890Z,17.22
2024-02-13T17:31:19.546Z,17.21
2024-02-13T17:33:47.881Z,17.20
2024-02-13T17:36:16.722Z,17.21
2024-02-13T17:38:47.167Z,17.20
2024-02-13T17:41:16.828Z,17.20
2024-02-13T17:43:47.289Z,17.19
2024-02-13T17:46:16.079Z,17.18
2024-02-13T17:48:43.732Z,17.17
2024-02-13T17:51:11.366Z,17.19
2024-02-13T17:53:39.122Z,17.17
2024-02-13T17:56:07.148Z,17.19
2024-02-13T17:58:34.480Z,17.18
2024-02-13T18:01:02.083Z,17.20
2024-02-13T18:03:30.054Z,17.20
2024-02-13T18:06:03.278Z,17.22
2024-02-13T18:08:35.046Z,17.25
2024-02-13T18:11:03.070Z,17.27
2024-02-13T18:13:30.874Z,17.29
2024-02-13T18:15:58.614Z,17.30
2024-02-13T18:18:28.087Z,17.31
2024-02-13T18:20:56.084Z,17.32
2024-02-13T18:23:23.591Z,17.33
2024-02-13T18:25:51.331Z,17.33
2024-02-13T18:28:18.706Z,17.34
2024-02-13T18:31:23.789Z,17.33
2024-02-13T18:34:47.327Z,17.34
2024-02-13T18:38:13.529Z,17.31
2024-02-13T18:41:36.467Z,17.34
2024-02-13T18:45:04.043Z,17.33
2024-02-13T18:48:30.039Z,17.33
2024-02-13T18:51:53.388Z,17.33
2024-02-13T18:55:21.603Z,17.32
2024-02-13T18:58:45.135Z,17.31
2024-02-13T19:02:16.235Z,17.31
2024-02-13T19:05:41.105Z,17.31
2024-02-13T19:09:04.923Z,17.31
2024-02-13T19:12:49.844Z,17.30
2024-02-13T19:16:15.921Z,17.30
2024-02-13T19:19:43.010Z,17.29
2024-02-13T19:23:06.510Z,17.28
2024-02-13T19:26:30.315Z,17.28
2024-02-13T19:29:53.960Z,17.27
2024-02-13T19:33:34.157Z,17.27
2024-02-13T19:37:01.630Z,17.26
2024-02-13T19:40:25.642Z,17.24
2024-02-13T19:43:48.481Z,17.25
2024-02-13T19:47:11.894Z,17.25
2024-02-13T19:50:57.834Z,17.23
2024-02-13T19:54:45.325Z,17.23
2024-02-13T19:58:29.120Z,17.24
2024-02-13T20:02:12.839Z,17.24
2024-02-13T20:05:59.216Z,17.26
2024-02-13T20:09:30.004Z,17.31
2024-02-13T20:12:53.209Z,17.34
2024-02-13T20:16:17.489Z,17.35
2024-02-13T20:19:41.203Z,17.36
2024-02-13T20:23:08.768Z,17.36
2024-02-13T20:26:37.198Z,17.38
2024-02-13T20:29:51.622Z,17.38
2024-02-13T20:32:20.028Z,17.38
2024-02-13T20:34:48.105Z,17.38
2024-02-13T20:37:17.236Z,17.38
2024-02-13T20:39:45.514Z,17.36
2024-02-13T20:42:13.075Z,17.39
2024-02-13T20:44:41.806Z,17.38
2024-02-13T20:47:10.890Z,17.38
2024-02-13T20:49:38.744Z,17.38
2024-02-13T20:52:06.579Z,17.37
2024-02-13T20:54:34.225Z,17.12
2024-02-13T20:57:02.313Z,17.03
2024-02-13T20:59:31.573Z,17.00
2024-02-13T21:02:06.809Z,16.99
2024-02-13T21:04:35.520Z,17.00
2024-02-13T21:07:03.166Z,17.05
2024-02-13T21:09:30.772Z,17.06
2024-02-13T21:11:58.708Z,17.06
2024-02-13T21:14:26.640Z,17.07
2024-02-13T21:16:54.180Z,17.11
2024-02-13T21:19:22.962Z,17.16
2024-02-13T21:22:08.787Z,17.18
2024-02-13T21:24:36.520Z,17.19
2024-02-13T21:27:04.287Z,17.18
2024-02-13T21:29:32.300Z,17.22
2024-02-13T21:32:00.028Z,17.22
2024-02-13T21:34:28.759Z,17.20
2024-02-13T21:36:56.400Z,17.24
2024-02-13T21:39:26.279Z,17.27
2024-02-13T21:41:54.516Z,17.26
2024-02-13T21:44:22.566Z,17.28
2024-02-13T21:46:54.691Z,17.29
2024-02-13T21:49:23.387Z,17.30
2024-02-13T21:51:51.091Z,17.29
2024-02-13T21:54:18.936Z,17.32
2024-02-13T21:56:46.618Z,17.28
2024-02-13T21:59:14.798Z,17.31
2024-02-13T22:01:42.814Z,17.32
2024-02-13T22:04:10.698Z,17.33
2024-02-13T22:06:38.472Z,17.38
2024-02-13T22:09:06.707Z,17.42
2024-02-13T22:11:34.728Z,17.42
2024-02-13T22:14:02.244Z,17.45
2024-02-13T22:16:32.881Z,17.46
2024-02-13T22:19:02.016Z,17.47
2024-02-13T22:21:30.219Z,17.49
2024-02-13T22:24:00.217Z,17.50
2024-02-13T22:26:29.588Z,17.47
2024-02-13T22:28:58.006Z,17.47
2024-02-13T22:31:26.197Z,17.45
2024-02-13T22:33:56.185Z,17.47
2024-02-13T22:36:24.749Z,17.45
2024-02-13T22:38:55.754Z,17.46
2024-02-13T22:41:25.305Z,17.50
2024-02-13T22:43:53.324Z,17.58
2024-02-13T22:46:25.186Z,17.58
2024-02-13T22:48:55.087Z,17.58
2024-02-13T22:51:23.081Z,17.54
2024-02-13T22:53:50.895Z,17.54
2024-02-13T22:56:18.813Z,17.55
2024-02-13T22:58:46.940Z,17.59
2024-02-13T23:01:15.656Z,17.63
2024-02-13T23:03:43.774Z,17.66
2024-02-13T23:06:12.201Z,17.67
2024-02-13T23:08:41.835Z,17.70
2024-02-13T23:11:11.321Z,17.69
2024-02-13T23:13:44.352Z,17.71
2024-02-13T23:16:15.980Z,17.68
2024-02-13T23:18:44.283Z,17.69
2024-02-13T23:21:12.906Z,17.69
2024-02-13T23:23:40.937Z,17.70
2024-02-13T23:26:09.437Z,17.69
2024-02-13T23:28:48.370Z,17.71
2024-02-13T23:31:23.758Z,17.66
2024-02-13T23:33:51.786Z,17.56
2024-02-13T23:36:20.003Z,17.49
2024-02-13T23:38:47.762Z,17.49
2024-02-13T23:41:15.597Z,17.52
2024-02-13T23:43:43.484Z,17.57
2024-02-13T23:46:11.292Z,17.52
2024-02-13T23:48:39.154Z,17.50
2024-02-13T23:51:07.323Z,17.47
2024-02-13T23:53:35.054Z,17.46
2024-02-13T23:56:02.787Z,17.47
2024-02-13T23:58:32.445Z,17.46
